UAL258 KEWR-LIMC
Flight info
| Callsign | UAL258 |
|---|---|
| Flight time | N/A |
| Altitude | 37000 |
| Route | MERIT DCT HFD DCT PUT DCT TUSKY DCT YHZ Q846 NOTOP DCT JOOPY/M083F390 DCT 49N050W 50N040W 51N030W 52N020W DCT LIMRI DCT XETBO DCT TAKAS/N0482F390 DCT ALUTA/N0486F410 DCT KORER DCT LEMKA DCT BEBIX/N0488F400 DCT VALKU/N0489F410 DCT TIS DCT MEBAK DCT GIPNO DCT BALSI DCT OBIGO DCT ROBEX DCT LAPRI/N0485F400 DCT MOGBO/N0487F410 DCT KODOK DCT TOP M135 ASTIG |
| Aircraft | B772/H-SDE2E3FGHIJ5LORVWXY/LB1D1 |
Departure
| Time | 2026-05-05 18:39 |
|---|---|
| Airport | Newark Liberty International Airport (KEWR) |
Arrival
| Time | N/A |
|---|---|
| Airport | Milan Malpensa International Airport (LIMC) |
| Time | Latitude | Longitude | Altitude | Speed | Heading |
|---|---|---|---|---|---|
| 2026-05-05 17:41 | 40.69395 | -74.17363 | 26 ft | 0 kts | 13° |
| 2026-05-05 18:25 | 40.69384 | -74.17367 | 24 ft | 4 kts | 13° |
| 2026-05-05 18:26 | 40.69360 | -74.17371 | 25 ft | 4 kts | 326° |
| 2026-05-05 18:26 | 40.69346 | -74.17353 | 25 ft | 4 kts | 328° |
| 2026-05-05 18:26 | 40.69332 | -74.17346 | 25 ft | 4 kts | 60° |
| 2026-05-05 18:26 | 40.69330 | -74.17367 | 26 ft | 3 kts | 103° |
| 2026-05-05 18:27 | 40.69336 | -74.17399 | 26 ft | 2 kts | 103° |
| 2026-05-05 18:27 | 40.69336 | -74.17400 | 26 ft | 0 kts | 103° |
| 2026-05-05 18:29 | 40.69335 | -74.17392 | 25 ft | 4 kts | 104° |
| 2026-05-05 18:30 | 40.69318 | -74.17331 | 23 ft | 9 kts | 114° |
| 2026-05-05 18:30 | 40.69289 | -74.17263 | 26 ft | 9 kts | 121° |
| 2026-05-05 18:30 | 40.69258 | -74.17196 | 26 ft | 9 kts | 117° |
| 2026-05-05 18:30 | 40.69277 | -74.17129 | 26 ft | 9 kts | 41° |
| 2026-05-05 18:31 | 40.69329 | -74.17088 | 28 ft | 9 kts | 27° |
| 2026-05-05 18:31 | 40.69383 | -74.17053 | 26 ft | 9 kts | 26° |
| 2026-05-05 18:31 | 40.69437 | -74.17018 | 26 ft | 9 kts | 26° |
| 2026-05-05 18:31 | 40.69490 | -74.16984 | 26 ft | 9 kts | 26° |
| 2026-05-05 18:32 | 40.69545 | -74.16950 | 26 ft | 9 kts | 26° |
| 2026-05-05 18:32 | 40.69599 | -74.16915 | 26 ft | 9 kts | 26° |
| 2026-05-05 18:32 | 40.69653 | -74.16881 | 26 ft | 9 kts | 26° |
| 2026-05-05 18:32 | 40.69707 | -74.16846 | 26 ft | 9 kts | 26° |
| 2026-05-05 18:33 | 40.69761 | -74.16811 | 26 ft | 9 kts | 26° |
| 2026-05-05 18:33 | 40.69816 | -74.16780 | 29 ft | 9 kts | 18° |
| 2026-05-05 18:33 | 40.69875 | -74.16767 | 30 ft | 9 kts | 6° |
| 2026-05-05 18:33 | 40.69935 | -74.16760 | 29 ft | 9 kts | 5° |
| 2026-05-05 18:34 | 40.69995 | -74.16753 | 29 ft | 9 kts | 5° |
| 2026-05-05 18:34 | 40.70054 | -74.16743 | 29 ft | 9 kts | 20° |
| 2026-05-05 18:34 | 40.70077 | -74.16674 | 28 ft | 9 kts | 89° |
| 2026-05-05 18:34 | 40.70074 | -74.16595 | 31 ft | 9 kts | 94° |
| 2026-05-05 18:35 | 40.70069 | -74.16522 | 29 ft | 5 kts | 95° |
| 2026-05-05 18:35 | 40.70068 | -74.16509 | 28 ft | 0 kts | 95° |
| 2026-05-05 18:37 | 40.70067 | -74.16494 | 28 ft | 6 kts | 95° |
| 2026-05-05 18:37 | 40.70063 | -74.16437 | 25 ft | 6 kts | 95° |
| 2026-05-05 18:37 | 40.70052 | -74.16383 | 28 ft | 6 kts | 131° |
| 2026-05-05 18:37 | 40.70008 | -74.16382 | 25 ft | 7 kts | 192° |
| 2026-05-05 18:38 | 40.69998 | -74.16386 | 25 ft | 0 kts | 197° |
| 2026-05-05 18:38 | 40.69997 | -74.16387 | 23 ft | 4 kts | 197° |
| 2026-05-05 18:39 | 40.69774 | -74.16523 | 27 ft | 71 kts | 206° |
| 2026-05-05 18:39 | 40.69116 | -74.16944 | 27 ft | 137 kts | 206° |
| 2026-05-05 18:39 | 40.68129 | -74.17581 | 237 ft | 173 kts | 206° |
| 2026-05-05 18:39 | 40.67036 | -74.18329 | 870 ft | 186 kts | 207° |
| 2026-05-05 18:40 | 40.65922 | -74.19137 | 1806 ft | 179 kts | 213° |
| 2026-05-05 18:40 | 40.65054 | -74.20405 | 2117 ft | 202 kts | 245° |
| 2026-05-05 18:40 | 40.64933 | -74.22312 | 2543 ft | 224 kts | 277° |
| 2026-05-05 18:40 | 40.65706 | -74.24178 | 3104 ft | 247 kts | 307° |
| 2026-05-05 18:41 | 40.67220 | -74.25477 | 3507 ft | 273 kts | 338° |
| 2026-05-05 18:41 | 40.69150 | -74.25736 | 4082 ft | 287 kts | 3° |
| 2026-05-05 18:41 | 40.71127 | -74.25304 | 4642 ft | 293 kts | 8° |
| 2026-05-05 18:41 | 40.73140 | -74.24754 | 5284 ft | 295 kts | 14° |
| 2026-05-05 18:42 | 40.74927 | -74.23407 | 5749 ft | 304 kts | 47° |
| 2026-05-05 18:42 | 40.76223 | -74.21219 | 6238 ft | 305 kts | 56° |
| 2026-05-05 18:42 | 40.77031 | -74.19705 | 6597 ft | 308 kts | 56° |
| 2026-05-05 18:42 | 40.78282 | -74.17386 | 7163 ft | 313 kts | 54° |
| 2026-05-05 18:43 | 40.79999 | -74.14278 | 7889 ft | 318 kts | 53° |
| 2026-05-05 18:43 | 40.81331 | -74.11918 | 8409 ft | 323 kts | 52° |
| 2026-05-05 18:43 | 40.82698 | -74.09529 | 8937 ft | 329 kts | 51° |
| 2026-05-05 18:43 | 40.83640 | -74.07897 | 9248 ft | 333 kts | 51° |
| 2026-05-05 18:44 | 40.85059 | -74.05451 | 9781 ft | 336 kts | 50° |
| 2026-05-05 18:44 | 40.86490 | -74.02998 | 10266 ft | 341 kts | 50° |
| 2026-05-05 18:44 | 40.87984 | -74.00448 | 10432 ft | 359 kts | 50° |
| 2026-05-05 18:44 | 40.89553 | -73.97775 | 10561 ft | 378 kts | 49° |
| 2026-05-05 18:45 | 40.91210 | -73.94954 | 10738 ft | 399 kts | 50° |
| 2026-05-05 18:45 | 40.92926 | -73.92028 | 11051 ft | 414 kts | 50° |
| 2026-05-05 18:45 | 40.94707 | -73.88985 | 11645 ft | 424 kts | 50° |
| 2026-05-05 18:45 | 40.96521 | -73.85876 | 12479 ft | 426 kts | 49° |